Hlavní strana
METAR-TAF:

METAR-TAF

Letiště :

Catacamas, Honduras

zeměpisná šířka: 14-54N, zeměpisná délka: 085-56W, výška: 442 m

Aktuální stav počasí

Zpráva byla vytvořena před 59 minutami, v 22:00 UTC
Východní vítr 4 kt
Teplota 33°C
Vlhkost vzduchu 53%
Tlak 1009 hPa
Viditelnost 10 km a více
Polojasno ve výšce 3000 ft, Vertikální cumulus.
Skoro jasno ve výšce 3200 ft, Cumulonimbus.
Oblačno až skoro zataženo ve výšce 25000 ft
zákal

METAR: MHCA 222200Z 08004KT 9999 SCT030TCU FEW032CB BKN250 33/22 Q1009 CB ESE TCU TDS HZ

Čas: 16:59 (22:59 UTC)


TAF: chybějící

Stav a předpovědi počasí z více než 4 000 letišť (zprávy METAR a TAF).

Červené a žluté tečky na mapě představují dostupné meteorologické stanice.

Když kurzor umístíte na tečku, zobrazí se název stanice.

Pak kliknutím zobrazíte stav a předpověď počasí.

Chcete-li změnit mapu, kliknutím na zelené tlačítko se znaménkem +mapu přiblížíte, kliknutím na zelené tlačítko se znaménkem – mapu oddálíte a kliknutím na zelené šipky přejdete na sousední mapy.


METAR-TAF: